createdAt,value
2019-06-01T00:00:11.396Z,12.90
2019-06-01T00:02:35.700Z,12.70
2019-06-01T00:05:06.950Z,14.30
2019-06-01T00:07:35.354Z,13.80
2019-06-01T00:10:05.108Z,13.97
2019-06-01T00:12:33.515Z,13.73
2019-06-01T00:15:01.922Z,13.87
2019-06-01T00:17:30.418Z,13.30
2019-06-01T00:19:58.781Z,13.77
2019-06-01T00:22:27.283Z,13.70
2019-06-01T00:24:55.687Z,13.97
2019-06-01T00:27:24.342Z,14.43
2019-06-01T00:29:53.131Z,13.07
2019-06-01T00:32:21.817Z,12.80
2019-06-01T00:34:51.786Z,15.20
2019-06-01T00:37:20.199Z,13.50
2019-06-01T00:39:49.875Z,14.47
2019-06-01T00:42:19.352Z,12.57
2019-06-01T00:44:48.531Z,13.43
2019-06-01T00:47:16.902Z,14.03
2019-06-01T00:49:46.649Z,13.73
2019-06-01T00:52:15.144Z,13.60
2019-06-01T00:54:43.537Z,14.70
2019-06-01T00:57:11.953Z,14.03
2019-06-01T00:59:40.330Z,14.30
2019-06-01T01:02:08.773Z,14.93
2019-06-01T01:04:37.171Z,15.87
2019-06-01T01:07:05.593Z,14.77
2019-06-01T01:09:33.965Z,14.67
2019-06-01T01:12:02.375Z,15.63
2019-06-01T01:14:30.795Z,14.60
2019-06-01T01:16:59.197Z,15.63
2019-06-01T01:19:27.850Z,15.23
2019-06-01T01:21:56.439Z,14.90
2019-06-01T01:24:25.145Z,14.07
2019-06-01T01:26:54.645Z,15.23
2019-06-01T01:29:23.184Z,14.57
2019-06-01T01:31:51.915Z,14.87
2019-06-01T01:34:20.309Z,14.63
2019-06-01T01:36:49.710Z,14.13
2019-06-01T01:39:18.259Z,14.57
2019-06-01T01:41:48.012Z,15.13
2019-06-01T01:44:16.464Z,15.13
2019-06-01T01:46:44.871Z,14.40
2019-06-01T01:49:13.294Z,15.43
2019-06-01T01:51:41.714Z,14.70
2019-06-01T01:54:10.436Z,14.67
2019-06-01T01:56:38.824Z,13.90
2019-06-01T01:59:07.217Z,14.00
2019-06-01T02:01:35.895Z,14.00
2019-06-01T02:04:04.353Z,14.70
2019-06-01T02:06:32.761Z,15.33
2019-06-01T02:09:01.761Z,14.80
2019-06-01T02:11:30.366Z,15.30
2019-06-01T02:13:59.965Z,15.20
2019-06-01T02:16:28.538Z,14.97
2019-06-01T02:18:58.471Z,15.57
2019-06-01T02:21:27.079Z,15.83
2019-06-01T02:23:56.820Z,15.70
2019-06-01T02:26:25.366Z,14.67
2019-06-01T02:28:55.200Z,16.37
2019-06-01T02:31:39.711Z,16.20
2019-06-01T02:33:55.801Z,16.17
2019-06-01T02:36:24.317Z,16.40
2019-06-01T02:38:54.494Z,15.53
2019-06-01T02:41:23.325Z,15.10
2019-06-01T02:43:52.031Z,14.43
2019-06-01T02:46:20.465Z,15.37
2019-06-01T02:48:49.100Z,15.50
2019-06-01T02:51:17.489Z,15.20
2019-06-01T02:53:46.161Z,15.57
2019-06-01T02:56:14.560Z,15.70
2019-06-01T02:58:42.971Z,15.37
2019-06-01T03:01:20.258Z,14.80
2019-06-01T03:03:49.188Z,16.77
2019-06-01T03:06:18.430Z,15.77
2019-06-01T03:08:49.424Z,16.33
2019-06-01T03:11:20.085Z,17.07
2019-06-01T03:13:51.986Z,16.70
2019-06-01T03:16:22.295Z,16.27
2019-06-01T03:18:52.826Z,16.83
2019-06-01T03:21:24.576Z,16.00
2019-06-01T03:23:56.637Z,17.27
2019-06-01T03:26:28.392Z,16.20
2019-06-01T03:29:00.117Z,15.90
2019-06-01T03:31:28.919Z,16.50
2019-06-01T03:33:57.375Z,15.57
2019-06-01T03:36:25.928Z,15.63
2019-06-01T03:38:54.862Z,16.50
2019-06-01T03:41:23.714Z,18.00
2019-06-01T03:43:52.271Z,16.73
2019-06-01T03:46:20.645Z,16.97
2019-06-01T03:48:49.075Z,16.97
2019-06-01T03:51:17.468Z,17.10
2019-06-01T03:53:45.867Z,19.30
2019-06-01T03:56:14.529Z,17.43
2019-06-01T03:58:42.912Z,16.30
2019-06-01T04:01:11.320Z,18.00
2019-06-01T04:03:39.717Z,16.00
2019-06-01T04:06:09.332Z,14.70
2019-06-01T04:08:37.891Z,16.67
2019-06-01T04:11:07.750Z,15.00
2019-06-01T04:13:36.476Z,16.00
2019-06-01T04:16:05.845Z,15.17
2019-06-01T04:18:34.327Z,15.00
2019-06-01T04:21:04.175Z,16.30
2019-06-01T04:23:32.645Z,15.47
2019-06-01T04:26:02.160Z,15.47
2019-06-01T04:28:30.607Z,15.33
2019-06-01T04:30:59.257Z,15.10
2019-06-01T04:33:27.662Z,14.37
2019-06-01T04:35:56.325Z,15.07
2019-06-01T04:38:24.733Z,16.50
2019-06-01T04:40:53.165Z,14.60
2019-06-01T04:43:21.566Z,15.53
2019-06-01T04:45:49.960Z,14.40
2019-06-01T04:48:18.372Z,15.40
2019-06-01T04:50:46.766Z,15.30
2019-06-01T04:53:15.419Z,15.70
2019-06-01T04:55:43.831Z,15.60
2019-06-01T04:58:13.108Z,16.47
2019-06-01T05:00:41.587Z,15.53
2019-06-01T05:03:10.834Z,14.43
2019-06-01T05:05:40.243Z,16.37
2019-06-01T05:08:09.374Z,16.50
2019-06-01T05:10:37.928Z,16.67
2019-06-01T05:13:07.319Z,15.63
2019-06-01T05:15:36.083Z,16.10
2019-06-01T05:18:05.868Z,16.23
2019-06-01T05:20:34.437Z,14.87
2019-06-01T05:23:03.083Z,16.33
2019-06-01T05:25:31.493Z,18.43
2019-06-01T05:27:59.888Z,16.90
2019-06-01T05:30:28.306Z,17.70
2019-06-01T05:32:56.703Z,17.97
2019-06-01T05:35:25.102Z,17.17
2019-06-01T05:37:53.785Z,16.27
2019-06-01T05:40:22.176Z,18.20
2019-06-01T05:42:50.881Z,16.63
2019-06-01T05:45:19.725Z,16.53
2019-06-01T05:47:48.192Z,16.73
2019-06-01T05:50:18.513Z,17.17
2019-06-01T05:52:46.914Z,16.33
2019-06-01T05:55:16.653Z,15.17
2019-06-01T05:57:45.577Z,15.73
2019-06-01T06:00:15.127Z,15.40
2019-06-01T06:02:43.760Z,16.10
2019-06-01T06:05:12.596Z,15.60
2019-06-01T06:07:41.119Z,16.00
2019-06-01T06:10:10.163Z,17.27
2019-06-01T06:12:38.555Z,15.80
2019-06-01T06:15:08.233Z,15.83
2019-06-01T06:17:36.675Z,16.83
2019-06-01T06:20:06.635Z,15.47
2019-06-01T06:22:35.031Z,15.07
2019-06-01T06:25:03.602Z,16.70
2019-06-01T06:27:31.986Z,17.43
2019-06-01T06:30:00.374Z,16.30
2019-06-01T06:32:28.803Z,17.00
2019-06-01T06:34:57.201Z,17.33
2019-06-01T06:37:25.627Z,18.70
2019-06-01T06:39:54.319Z,18.27
2019-06-01T06:42:23.011Z,17.50
2019-06-01T06:44:51.392Z,17.23
2019-06-01T06:47:20.844Z,15.73
2019-06-01T06:49:49.400Z,17.40
2019-06-01T06:52:17.787Z,16.70
2019-06-01T06:54:46.466Z,17.10
2019-06-01T06:57:15.918Z,16.30
2019-06-01T06:59:44.438Z,16.70
2019-06-01T07:02:12.843Z,15.63
2019-06-01T07:04:41.221Z,15.73
2019-06-01T07:07:09.630Z,17.30
2019-06-01T07:09:38.299Z,16.50
2019-06-01T07:12:06.833Z,15.13
2019-06-01T07:14:35.199Z,16.47
2019-06-01T07:17:03.600Z,17.63
2019-06-01T07:19:32.239Z,16.70
2019-06-01T07:22:00.923Z,14.70
2019-06-01T07:24:29.733Z,16.63
2019-06-01T07:26:58.141Z,17.73
2019-06-01T07:29:26.553Z,16.07
2019-06-01T07:31:54.962Z,15.33
2019-06-01T07:34:36.092Z,15.73
2019-06-01T07:36:53.511Z,16.87
2019-06-01T07:39:25.056Z,15.90
2019-06-01T07:41:53.433Z,15.80
2019-06-01T07:44:22.716Z,15.37
2019-06-01T07:46:51.608Z,15.50
2019-06-01T07:49:21.038Z,14.23
2019-06-01T07:51:49.553Z,13.70
2019-06-01T07:54:18.191Z,14.93
2019-06-01T07:56:46.850Z,14.17
2019-06-01T07:59:15.293Z,15.23
2019-06-01T08:01:43.630Z,14.57
2019-06-01T08:04:12.443Z,14.53
2019-06-01T08:06:46.417Z,13.50
2019-06-01T08:09:11.574Z,12.80
2019-06-01T08:11:40.250Z,13.30
2019-06-01T08:14:08.717Z,11.87
2019-06-01T08:16:37.426Z,11.30
2019-06-01T08:19:06.131Z,12.00
2019-06-01T08:21:34.538Z,8.97
2019-06-01T08:24:02.991Z,9.70
2019-06-01T08:26:32.664Z,10.00
2019-06-01T08:29:01.399Z,10.43
2019-06-01T08:31:31.801Z,10.77
2019-06-01T08:34:00.542Z,9.20
2019-06-01T08:36:29.510Z,10.40
2019-06-01T08:38:57.961Z,9.97
2019-06-01T08:41:27.590Z,10.30
2019-06-01T08:43:58.229Z,10.40
2019-06-01T08:46:27.654Z,10.33
2019-06-01T08:48:56.439Z,9.50
2019-06-01T08:51:26.377Z,10.00
2019-06-01T08:53:55.258Z,10.70
2019-06-01T08:56:24.262Z,12.10
2019-06-01T08:58:52.945Z,10.67
2019-06-01T09:01:21.355Z,11.03
2019-06-01T09:03:50.023Z,10.00
2019-06-01T09:06:18.706Z,10.37
2019-06-01T09:08:47.429Z,9.60
2019-06-01T09:11:16.017Z,8.80
2019-06-01T09:13:44.403Z,8.63
2019-06-01T09:16:13.062Z,8.57
2019-06-01T09:18:41.463Z,8.63
2019-06-01T09:21:10.138Z,11.70
2019-06-01T09:23:38.647Z,9.90
2019-06-01T09:26:07.304Z,11.00
2019-06-01T09:28:36.260Z,10.33
2019-06-01T09:31:04.998Z,10.40
2019-06-01T09:33:35.105Z,9.83
2019-06-01T09:36:03.589Z,9.13
2019-06-01T09:38:32.293Z,11.13
2019-06-01T09:41:00.702Z,9.70
2019-06-01T09:43:29.100Z,10.07
2019-06-01T09:45:59.050Z,11.93
2019-06-01T09:48:27.773Z,10.73
2019-06-01T09:50:56.572Z,10.00
2019-06-01T09:53:25.084Z,9.93
2019-06-01T09:55:53.462Z,10.50
2019-06-01T09:58:22.120Z,9.87
2019-06-01T10:00:50.548Z,9.47
2019-06-01T10:03:19.304Z,10.20
2019-06-01T10:06:01.270Z,9.93
2019-06-01T10:08:17.826Z,9.07
2019-06-01T10:10:46.598Z,9.70
2019-06-01T10:13:14.987Z,9.47
2019-06-01T10:15:43.461Z,10.10
2019-06-01T10:18:11.884Z,9.27
2019-06-01T10:20:41.373Z,9.27
2019-06-01T10:23:10.051Z,9.10
2019-06-01T10:25:38.671Z,9.57
2019-06-01T10:28:07.058Z,8.90
2019-06-01T10:30:35.819Z,9.30
2019-06-01T10:33:04.613Z,9.83
2019-06-01T10:35:33.390Z,9.80
2019-06-01T10:38:01.805Z,10.60
2019-06-01T10:40:31.246Z,10.73
2019-06-01T10:43:00.082Z,10.40
2019-06-01T10:45:28.501Z,10.70
2019-06-01T10:47:56.887Z,10.47
2019-06-01T10:50:25.535Z,9.53
2019-06-01T10:52:53.938Z,10.87
2019-06-01T10:55:22.333Z,10.67
2019-06-01T10:57:50.989Z,11.37
2019-06-01T11:00:37.160Z,12.33
2019-06-01T11:02:50.730Z,15.00
2019-06-01T11:05:19.465Z,13.70
2019-06-01T11:07:47.864Z,12.60
2019-06-01T11:10:25.770Z,11.90
2019-06-01T11:13:04.249Z,12.07
2019-06-01T11:15:33.124Z,11.47
2019-06-01T11:18:01.702Z,12.33
2019-06-01T11:20:30.100Z,11.60
2019-06-01T11:22:58.769Z,12.67
2019-06-01T11:25:27.168Z,10.87
2019-06-01T11:27:55.573Z,10.37
2019-06-01T11:30:24.127Z,11.60
2019-06-01T11:32:52.652Z,11.30
2019-06-01T11:35:21.022Z,12.47
2019-06-01T11:37:49.408Z,10.93
2019-06-01T11:40:17.875Z,12.30
2019-06-01T11:42:46.560Z,11.20
2019-06-01T11:45:15.392Z,11.30
2019-06-01T11:47:45.095Z,12.50
2019-06-01T11:50:14.286Z,11.17
2019-06-01T11:52:43.244Z,10.67
2019-06-01T11:55:11.817Z,10.73
2019-06-01T11:57:41.483Z,13.67
2019-06-01T12:00:12.300Z,11.87
2019-06-01T12:02:41.819Z,11.93
2019-06-01T12:05:11.461Z,12.70
2019-06-01T12:07:41.833Z,13.03
2019-06-01T12:10:10.742Z,11.70
2019-06-01T12:12:40.233Z,11.90
2019-06-01T12:15:09.382Z,11.40
2019-06-01T12:17:38.745Z,11.77
2019-06-01T12:20:07.720Z,11.10
2019-06-01T12:22:36.717Z,11.43
2019-06-01T12:25:06.339Z,11.47
2019-06-01T12:27:34.740Z,12.13
2019-06-01T12:30:04.713Z,10.40
2019-06-01T12:32:33.108Z,10.73
2019-06-01T12:35:03.393Z,11.43
2019-06-01T12:37:45.370Z,12.00
2019-06-01T12:40:01.765Z,11.33
2019-06-01T12:42:30.170Z,10.93
2019-06-01T12:44:58.575Z,11.87
2019-06-01T12:47:27.239Z,11.83
2019-06-01T12:49:55.656Z,11.27
2019-06-01T12:52:24.055Z,11.20
2019-06-01T12:54:53.137Z,11.53
2019-06-01T12:57:21.634Z,11.73
2019-06-01T12:59:51.243Z,11.80
2019-06-01T13:02:20.091Z,11.10
2019-06-01T13:04:49.218Z,12.60
2019-06-01T13:07:17.878Z,12.37
2019-06-01T13:09:46.346Z,10.80
2019-06-01T13:12:14.678Z,11.47
2019-06-01T13:14:43.233Z,11.23
2019-06-01T13:17:11.681Z,11.50
2019-06-01T13:19:41.263Z,11.37
2019-06-01T13:22:09.759Z,12.37
2019-06-01T13:24:38.151Z,11.60
2019-06-01T13:27:27.274Z,11.93
2019-06-01T13:29:55.945Z,11.70
2019-06-01T13:32:24.334Z,10.90
2019-06-01T13:34:53.643Z,11.87
2019-06-01T13:37:22.463Z,10.47
2019-06-01T13:39:57.496Z,11.07
2019-06-01T13:42:20.981Z,12.07
2019-06-01T13:44:49.610Z,11.00
2019-06-01T13:47:17.932Z,11.80
2019-06-01T13:49:46.871Z,11.47
2019-06-01T13:52:16.617Z,10.60
2019-06-01T13:54:46.436Z,10.20
2019-06-01T13:57:14.873Z,10.60
2019-06-01T13:59:44.582Z,10.60
2019-06-01T14:02:13.106Z,11.60
2019-06-01T14:04:41.505Z,11.03
2019-06-01T14:07:09.977Z,10.50
2019-06-01T14:09:38.369Z,11.13
2019-06-01T14:12:06.791Z,11.30
2019-06-01T14:14:35.196Z,11.37
2019-06-01T14:17:03.844Z,10.40
2019-06-01T14:19:32.574Z,11.20
2019-06-01T14:22:00.975Z,11.30
2019-06-01T14:24:29.371Z,10.20
2019-06-01T14:26:57.796Z,11.17
2019-06-01T14:29:26.245Z,10.83
2019-06-01T14:31:55.523Z,11.30
2019-06-01T14:34:25.362Z,10.87
2019-06-01T14:36:54.585Z,10.57
2019-06-01T14:39:23.110Z,10.93
2019-06-01T14:41:51.506Z,11.57
2019-06-01T14:44:19.912Z,11.10
2019-06-01T14:46:55.006Z,11.90
2019-06-01T14:49:18.445Z,11.77
2019-06-01T14:51:47.525Z,10.90
2019-06-01T14:54:16.076Z,11.67
2019-06-01T14:56:44.847Z,10.93
2019-06-01T14:59:13.512Z,10.87
2019-06-01T15:01:42.499Z,12.83
2019-06-01T15:04:10.961Z,10.80
2019-06-01T15:06:39.693Z,13.30
2019-06-01T15:09:18.552Z,12.80
2019-06-01T15:11:39.063Z,12.07
2019-06-01T15:14:07.700Z,15.70
2019-06-01T15:16:36.127Z,12.23
2019-06-01T15:19:04.647Z,11.90
2019-06-01T15:21:33.117Z,10.83
2019-06-01T15:24:02.326Z,10.93
2019-06-01T15:26:30.828Z,11.03
2019-06-01T15:29:01.344Z,11.70
2019-06-01T15:31:31.500Z,10.70
2019-06-01T15:34:01.697Z,11.47
2019-06-01T15:36:30.393Z,10.23
2019-06-01T15:38:59.882Z,11.03
2019-06-01T15:41:29.188Z,10.47
2019-06-01T15:43:59.086Z,10.63
2019-06-01T15:46:28.962Z,10.10
2019-06-01T15:48:57.752Z,11.60
2019-06-01T15:51:26.243Z,11.47
2019-06-01T15:53:54.998Z,10.00
2019-06-01T15:56:23.848Z,10.47
2019-06-01T15:58:55.042Z,10.33
2019-06-01T16:01:22.685Z,11.00
2019-06-01T16:03:51.092Z,12.67
2019-06-01T16:06:19.488Z,12.50
2019-06-01T16:08:47.882Z,10.47
2019-06-01T16:11:16.312Z,10.67
2019-06-01T16:13:44.718Z,10.70
2019-06-01T16:16:13.192Z,10.53
2019-06-01T16:18:43.488Z,10.77
2019-06-01T16:21:11.935Z,10.53
2019-06-01T16:23:49.874Z,11.33
2019-06-01T16:26:16.074Z,10.57
2019-06-01T16:28:41.181Z,10.50
2019-06-01T16:31:09.852Z,10.63
2019-06-01T16:33:38.239Z,12.80
2019-06-01T16:36:06.649Z,15.23
2019-06-01T16:38:36.854Z,28.23
2019-06-01T16:41:05.576Z,10.43
2019-06-01T16:43:34.019Z,10.00
2019-06-01T16:46:03.738Z,9.50
2019-06-01T16:48:32.293Z,11.20
2019-06-01T16:51:01.958Z,10.40
2019-06-01T16:53:30.864Z,10.93
2019-06-01T16:55:59.868Z,11.57
2019-06-01T16:58:30.268Z,13.00
2019-06-01T17:00:58.660Z,11.10
2019-06-01T17:03:27.068Z,11.57
2019-06-01T17:05:56.635Z,9.87
2019-06-01T17:08:28.684Z,11.30
2019-06-01T17:11:00.696Z,12.90
2019-06-01T17:13:29.461Z,14.50
2019-06-01T17:15:58.916Z,14.43
2019-06-01T17:18:29.611Z,13.27
2019-06-01T17:20:59.155Z,11.73
2019-06-01T17:23:30.587Z,12.07
2019-06-01T17:25:58.423Z,12.00
2019-06-01T17:28:33.145Z,13.47
2019-06-01T17:31:02.320Z,11.60
2019-06-01T17:33:31.254Z,11.50
2019-06-01T17:36:00.619Z,26.40
2019-06-01T17:38:29.126Z,17.67
2019-06-01T17:40:57.524Z,24.93
2019-06-01T17:43:26.220Z,28.83
2019-06-01T17:45:54.617Z,16.77
2019-06-01T17:48:26.937Z,11.83
2019-06-01T17:50:53.195Z,10.30
2019-06-01T17:53:25.182Z,10.13
2019-06-01T17:55:55.076Z,9.70
2019-06-01T17:58:30.215Z,11.17
2019-06-01T18:01:01.933Z,18.20
2019-06-01T18:03:33.652Z,15.13
2019-06-01T18:06:02.054Z,15.43
2019-06-01T18:08:30.840Z,10.80
2019-06-01T18:11:00.000Z,10.63
2019-06-01T18:13:31.539Z,10.33
2019-06-01T18:15:59.962Z,14.87
2019-06-01T18:18:28.565Z,12.10
2019-06-01T18:21:02.256Z,12.50
2019-06-01T18:23:30.808Z,10.93
2019-06-01T18:25:59.212Z,11.73
2019-06-01T18:28:27.685Z,11.07
2019-06-01T18:30:56.084Z,10.20
2019-06-01T18:33:26.462Z,10.87
2019-06-01T18:35:54.881Z,10.53
2019-06-01T18:38:23.599Z,11.70
2019-06-01T18:41:06.491Z,11.57
2019-06-01T18:43:22.347Z,12.73
2019-06-01T18:45:50.770Z,14.70
2019-06-01T18:48:20.064Z,16.33
2019-06-01T18:50:49.110Z,17.60
2019-06-01T18:53:17.723Z,21.50
2019-06-01T18:55:46.126Z,26.20
2019-06-01T18:58:15.006Z,27.40
2019-06-01T19:00:43.759Z,26.63
2019-06-01T19:03:13.505Z,25.13
2019-06-01T19:05:42.681Z,22.20
2019-06-01T19:08:11.566Z,18.93
2019-06-01T19:10:40.207Z,14.73
2019-06-01T19:13:09.576Z,15.07
2019-06-01T19:15:38.107Z,14.40
2019-06-01T19:18:06.524Z,14.80
2019-06-01T19:20:34.919Z,15.40
2019-06-01T19:23:03.817Z,16.50
2019-06-01T19:25:32.285Z,18.50
2019-06-01T19:28:00.999Z,18.77
2019-06-01T19:30:40.501Z,18.67
2019-06-01T19:33:13.571Z,15.93
2019-06-01T19:35:40.520Z,16.47
2019-06-01T19:38:09.199Z,17.40
2019-06-01T19:40:39.326Z,15.93
2019-06-01T19:43:09.403Z,16.93
2019-06-01T19:45:38.046Z,17.13
2019-06-01T19:48:08.194Z,17.53
2019-06-01T19:50:36.859Z,17.90
2019-06-01T19:53:06.541Z,17.23
2019-06-01T19:55:35.094Z,17.07
2019-06-01T19:58:03.661Z,17.60
2019-06-01T20:00:32.052Z,15.93
2019-06-01T20:03:00.969Z,14.43
2019-06-01T20:05:29.765Z,14.60
2019-06-01T20:07:58.462Z,14.60
2019-06-01T20:10:27.037Z,14.73
2019-06-01T20:12:55.486Z,15.80
2019-06-01T20:15:23.908Z,14.70
2019-06-01T20:17:52.350Z,15.97
2019-06-01T20:20:21.184Z,16.30
2019-06-01T20:22:49.618Z,15.60
2019-06-01T20:25:19.521Z,17.07
2019-06-01T20:27:48.282Z,17.63
2019-06-01T20:30:18.030Z,16.90
2019-06-01T20:32:46.421Z,16.30
2019-06-01T20:35:16.020Z,17.40
2019-06-01T20:37:44.466Z,16.17
2019-06-01T20:40:14.230Z,15.60
2019-06-01T20:42:42.753Z,15.70
2019-06-01T20:45:12.527Z,16.63
2019-06-01T20:47:41.022Z,17.10
2019-06-01T20:50:10.065Z,17.07
2019-06-01T20:52:38.523Z,15.97
2019-06-01T20:55:09.525Z,16.33
2019-06-01T20:57:37.925Z,16.63
2019-06-01T21:00:07.821Z,16.17
2019-06-01T21:02:36.552Z,15.53
2019-06-01T21:05:06.929Z,15.50
2019-06-01T21:07:35.607Z,14.67
2019-06-01T21:10:06.105Z,15.20
2019-06-01T21:12:44.927Z,16.47
2019-06-01T21:15:07.963Z,14.47
2019-06-01T21:17:36.358Z,16.20
2019-06-01T21:20:09.877Z,13.40
2019-06-01T21:22:43.717Z,13.90
2019-06-01T21:25:12.612Z,14.17
2019-06-01T21:27:41.010Z,15.40
2019-06-01T21:30:10.068Z,13.80
2019-06-01T21:32:38.513Z,13.27
2019-06-01T21:35:08.939Z,13.53
2019-06-01T21:37:37.367Z,14.10
2019-06-01T21:40:07.818Z,13.60
2019-06-01T21:42:38.513Z,12.63
2019-06-01T21:45:19.494Z,12.23
2019-06-01T21:47:47.947Z,13.13
2019-06-01T21:50:18.053Z,13.63
2019-06-01T21:52:47.748Z,12.70
2019-06-01T21:55:16.195Z,13.40
2019-06-01T21:57:44.544Z,12.80
2019-06-01T22:00:29.755Z,13.47
2019-06-01T22:02:58.503Z,11.93
2019-06-01T22:05:27.393Z,13.27
2019-06-01T22:07:55.757Z,13.07
2019-06-01T22:10:25.518Z,12.60
2019-06-01T22:12:54.173Z,12.63
2019-06-01T22:15:23.832Z,13.20
2019-06-01T22:17:52.310Z,13.20
2019-06-01T22:20:21.869Z,12.70
2019-06-01T22:22:50.491Z,13.40
2019-06-01T22:25:20.444Z,12.97
2019-06-01T22:27:49.082Z,12.00
2019-06-01T22:30:18.353Z,12.73
2019-06-01T22:32:47.260Z,13.60
2019-06-01T22:35:15.660Z,13.10
2019-06-01T22:37:44.054Z,12.80
2019-06-01T22:40:12.660Z,12.07
2019-06-01T22:42:41.054Z,13.50
2019-06-01T22:45:09.996Z,13.93
2019-06-01T22:47:38.377Z,13.20
2019-06-01T22:50:07.214Z,14.03
2019-06-01T22:52:35.610Z,14.00
2019-06-01T22:55:05.839Z,13.90
2019-06-01T22:57:34.247Z,13.43
2019-06-01T23:00:02.720Z,12.40
2019-06-01T23:02:32.038Z,13.23
2019-06-01T23:05:00.513Z,12.93
2019-06-01T23:07:29.267Z,12.30
2019-06-01T23:09:57.808Z,13.00
2019-06-01T23:12:27.500Z,12.37
2019-06-01T23:14:56.083Z,12.53
2019-06-01T23:17:25.766Z,12.30
2019-06-01T23:19:54.459Z,12.90
2019-06-01T23:22:23.951Z,12.83
2019-06-01T23:24:52.717Z,13.27
2019-06-01T23:27:22.066Z,13.67
2019-06-01T23:29:50.825Z,13.77
2019-06-01T23:32:19.214Z,13.47
2019-06-01T23:34:47.629Z,12.60
2019-06-01T23:37:16.029Z,12.73
2019-06-01T23:39:44.520Z,13.67
2019-06-01T23:42:13.213Z,12.60
2019-06-01T23:44:41.599Z,12.43
2019-06-01T23:47:10.314Z,12.73
2019-06-01T23:49:38.727Z,12.10
2019-06-01T23:52:07.211Z,12.60
2019-06-01T23:54:35.881Z,13.00
2019-06-01T23:57:04.620Z,12.83
2019-06-01T23:59:34.279Z,12.00
